Time;durP1;ratioP1;P1;durP2;ratioP2;P2;SDS_P1;SDS_P2;PMS_P1;PMS_P2;Temp;Humidity;BMP_temperature;BMP_pressure;BME280_temperature;BME280_humidity;BME280_pressure;Samples;Min_cycle;Max_cycle;Signal;HPM_P1;HPM_P2
2020/12/30 00:00:00;;;;;;;5.13;1.92;;;22.40;50.90;;;;;;5028755;28;20337;-61
2020/12/30 00:02:29;;;;;;;4.57;2.10;;;22.30;51.00;;;;;;5030274;28;20029;-60
2020/12/30 00:04:55;;;;;;;;;;;22.30;51.00;;;;;;5034917;28;20034;-61
2020/12/30 00:07:21;;;;;;;5.45;2.08;;;22.30;51.00;;;;;;5031107;28;20065;-61
2020/12/30 00:09:48;;;;;;;3.80;1.80;;;22.30;51.00;;;;;;5029204;28;20471;-61
2020/12/30 00:12:14;;;;;;;4.13;1.67;;;22.30;51.00;;;;;;5024722;28;20432;-61
2020/12/30 00:14:40;;;;;;;6.60;2.05;;;22.30;51.10;;;;;;5028036;28;20483;-61
2020/12/30 00:17:06;;;;;;;3.67;1.80;;;22.20;51.10;;;;;;5034224;28;20151;-61
2020/12/30 00:19:31;;;;;;;2.80;1.73;;;22.20;51.00;;;;;;5024148;28;20383;-61
2020/12/30 00:21:57;;;;;;;3.28;1.70;;;22.20;51.10;;;;;;5034632;28;20029;-61
2020/12/30 00:24:23;;;;;;;3.33;2.00;;;22.20;51.10;;;;;;5030202;28;20040;-61
2020/12/30 00:26:48;;;;;;;2.55;1.70;;;22.10;51.10;;;;;;5026197;28;20076;-61
2020/12/30 00:29:14;;;;;;;3.75;1.70;;;22.10;51.10;;;;;;5026818;28;20448;-61
2020/12/30 00:31:39;;;;;;;3.83;1.85;;;22.10;51.10;;;;;;5036069;28;20473;-61
2020/12/30 00:34:05;;;;;;;3.80;1.80;;;22.00;51.00;;;;;;5026732;28;20040;-60
2020/12/30 00:36:39;;;;;;;4.05;1.90;;;22.00;51.10;;;;;;5029455;28;20032;-61
2020/12/30 00:39:06;;;;;;;3.75;1.90;;;22.00;51.10;;;;;;5027487;28;20040;-62
2020/12/30 00:41:32;;;;;;;3.40;1.80;;;22.00;51.10;;;;;;5029260;28;20083;-61
2020/12/30 00:44:01;;;;;;;3.67;1.65;;;21.90;51.10;;;;;;5027422;28;20083;-60
2020/12/30 00:46:27;;;;;;;3.00;1.63;;;21.90;51.10;;;;;;5036306;28;20174;-61
2020/12/30 00:48:52;;;;;;;3.78;1.50;;;21.90;51.10;;;;;;5044933;28;20119;-61
2020/12/30 00:51:18;;;;;;;3.10;1.70;;;21.80;51.10;;;;;;5040033;28;20336;-61
2020/12/30 00:53:44;;;;;;;3.63;1.70;;;21.80;51.10;;;;;;5028916;28;20331;-61
2020/12/30 00:56:10;;;;;;;4.93;1.70;;;21.80;51.10;;;;;;5032036;28;20090;-62
2020/12/30 00:58:37;;;;;;;3.35;1.60;;;21.80;51.10;;;;;;5030879;28;20103;-61
2020/12/30 01:01:04;;;;;;;4.82;2.25;;;21.70;51.00;;;;;;5027991;28;20164;-61
2020/12/30 01:03:30;;;;;;;3.00;1.80;;;21.70;51.00;;;;;;5025849;28;20181;-61
2020/12/30 01:05:56;;;;;;;3.90;1.88;;;21.70;51.10;;;;;;5027050;28;20413;-61
2020/12/30 01:08:23;;;;;;;3.05;1.83;;;21.70;51.10;;;;;;5025266;28;20037;-62
2020/12/30 01:10:48;;;;;;;2.90;1.50;;;21.70;51.10;;;;;;5025624;28;20021;-61
2020/12/30 01:13:14;;;;;;;2.97;1.40;;;21.60;51.00;;;;;;5036023;28;20033;-61
2020/12/30 01:15:40;;;;;;;3.35;1.45;;;21.60;51.10;;;;;;5032207;28;20082;-61
2020/12/30 01:18:06;;;;;;;3.03;1.67;;;21.60;51.10;;;;;;5021413;28;20033;-61
2020/12/30 01:20:32;;;;;;;2.88;1.55;;;21.60;51.10;;;;;;5024525;28;20033;-61
2020/12/30 01:22:57;;;;;;;4.85;1.80;;;21.50;51.10;;;;;;5024453;28;20113;-61
2020/12/30 01:25:23;;;;;;;3.22;1.75;;;21.50;51.10;;;;;;5024659;28;20099;-61
2020/12/30 01:27:48;;;;;;;2.63;1.30;;;21.50;51.10;;;;;;5023592;28;20047;-61
2020/12/30 01:30:14;;;;;;;3.00;1.48;;;21.50;51.10;;;;;;5035374;28;20040;-61
2020/12/30 01:32:39;;;;;;;3.95;1.50;;;21.40;51.10;;;;;;5021569;28;20349;-61
2020/12/30 01:35:05;;;;;;;3.03;1.55;;;21.50;51.20;;;;;;5023173;28;20357;-61
2020/12/30 01:37:31;;;;;;;2.75;1.40;;;21.40;51.10;;;;;;5026060;28;20033;-61
2020/12/30 01:39:56;;;;;;;2.63;1.50;;;21.40;51.20;;;;;;5037329;28;20029;-61
2020/12/30 01:42:22;;;;;;;2.85;1.58;;;21.40;51.20;;;;;;5032392;28;20100;-61
2020/12/30 01:44:47;;;;;;;3.38;1.45;;;21.40;51.20;;;;;;5024444;28;20326;-61
2020/12/30 01:47:13;;;;;;;2.90;1.50;;;21.30;51.20;;;;;;5026527;28;20405;-61
2020/12/30 01:49:39;;;;;;;2.50;1.30;;;21.30;51.20;;;;;;5044574;28;20450;-61
2020/12/30 01:52:05;;;;;;;2.78;1.40;;;21.30;51.20;;;;;;5038680;28;20067;-61
2020/12/30 01:54:31;;;;;;;2.55;1.30;;;21.30;51.30;;;;;;5025505;28;20193;-61
2020/12/30 01:56:57;;;;;;;3.13;1.50;;;21.30;51.20;;;;;;5023931;28;20017;-61
2020/12/30 01:59:22;;;;;;;3.45;1.45;;;21.20;51.20;;;;;;5028755;28;20041;-61
2020/12/30 02:01:57;;;;;;;2.83;1.40;;;21.20;51.20;;;;;;5022512;28;20404;-61
2020/12/30 02:04:28;;;;;;;3.10;1.40;;;21.20;51.20;;;;;;5026378;28;20087;-61
2020/12/30 02:06:55;;;;;;;1.58;1.15;;;21.20;51.30;;;;;;5044246;28;20020;-61
2020/12/30 02:09:21;;;;;;;1.83;1.15;;;21.20;51.30;;;;;;5043512;28;20352;-61
2020/12/30 02:11:50;;;;;;;2.10;1.10;;;21.20;51.30;;;;;;5045388;28;20268;-60
2020/12/30 02:14:15;;;;;;;3.35;1.40;;;21.10;51.30;;;;;;5040996;28;20032;-61
2020/12/30 02:16:51;;;;;;;2.45;1.40;;;21.10;51.30;;;;;;5033091;28;20098;-60
2020/12/30 02:19:18;;;;;;;3.25;1.33;;;21.10;51.30;;;;;;5029208;28;20029;-61
2020/12/30 02:21:44;;;;;;;2.15;1.17;;;21.10;51.40;;;;;;5026844;28;20423;-60
2020/12/30 02:24:12;;;;;;;2.50;1.25;;;21.10;51.40;;;;;;5029094;28;20044;-61
2020/12/30 02:26:38;;;;;;;2.67;1.42;;;21.00;51.40;;;;;;5036078;28;20021;-61
2020/12/30 02:29:03;;;;;;;1.80;1.10;;;21.00;51.40;;;;;;5034533;28;20025;-61
2020/12/30 02:31:29;;;;;;;2.45;1.30;;;21.00;51.40;;;;;;5039940;28;20116;-61
2020/12/30 02:33:55;;;;;;;3.35;1.20;;;21.00;51.40;;;;;;5025858;28;20127;-61
2020/12/30 02:36:20;;;;;;;2.63;1.30;;;21.00;51.50;;;;;;5027117;28;20469;-61
2020/12/30 02:38:51;;;;;;;2.42;1.10;;;21.00;51.50;;;;;;5025262;28;20445;-61
2020/12/30 02:41:17;;;;;;;2.63;1.23;;;21.00;51.50;;;;;;5024642;28;20029;-62
2020/12/30 02:43:42;;;;;;;2.65;1.40;;;20.90;51.40;;;;;;5037981;28;20407;-61
2020/12/30 02:46:08;;;;;;;2.35;1.27;;;20.90;51.50;;;;;;5043827;28;20094;-61
2020/12/30 02:48:33;;;;;;;2.78;1.20;;;20.90;51.50;;;;;;5038723;28;20029;-61
2020/12/30 02:50:59;;;;;;;3.25;1.27;;;20.90;51.60;;;;;;5037299;28;20065;-61
2020/12/30 02:53:25;;;;;;;2.42;1.33;;;20.90;51.60;;;;;;5029894;28;20123;-61
2020/12/30 02:55:50;;;;;;;2.83;1.30;;;20.90;51.60;;;;;;5033952;28;20021;-61
2020/12/30 02:58:16;;;;;;;2.05;1.13;;;20.80;51.60;;;;;;5033834;28;20400;-60
2020/12/30 03:00:41;;;;;;;2.70;1.30;;;20.80;51.70;;;;;;5031907;28;20032;-60
2020/12/30 03:03:07;;;;;;;2.17;1.30;;;20.80;51.70;;;;;;5034420;28;20144;-61
2020/12/30 03:05:32;;;;;;;2.97;1.00;;;20.80;51.70;;;;;;5031434;28;20038;-61
2020/12/30 03:07:58;;;;;;;2.20;1.10;;;20.80;51.70;;;;;;5028147;28;20041;-61
2020/12/30 03:10:23;;;;;;;2.22;1.20;;;20.80;51.70;;;;;;5032048;28;20025;-61
2020/12/30 03:12:49;;;;;;;2.92;1.23;;;20.70;51.70;;;;;;5030028;28;20480;-61
2020/12/30 03:15:14;;;;;;;2.28;1.30;;;20.70;51.70;;;;;;5032075;28;20075;-61
2020/12/30 03:17:40;;;;;;;2.63;1.02;;;20.70;51.70;;;;;;5024663;28;20025;-61
2020/12/30 03:20:06;;;;;;;2.08;1.20;;;20.70;51.80;;;;;;5027758;28;20060;-61
2020/12/30 03:22:31;;;;;;;2.30;1.10;;;20.70;51.80;;;;;;5028769;28;20041;-61
2020/12/30 03:24:57;;;;;;;2.13;1.13;;;20.70;51.80;;;;;;5028117;28;20349;-60
2020/12/30 03:27:23;;;;;;;1.92;1.10;;;20.70;51.80;;;;;;5025920;28;20029;-61
2020/12/30 03:29:48;;;;;;;2.15;1.30;;;20.70;51.80;;;;;;5038747;28;20025;-61
2020/12/30 03:32:14;;;;;;;1.60;1.00;;;20.60;51.80;;;;;;5028168;28;20064;-61
2020/12/30 03:34:39;;;;;;;1.88;1.02;;;20.60;51.80;;;;;;5034901;28;20033;-61
2020/12/30 03:37:05;;;;;;;2.08;1.15;;;20.60;51.80;;;;;;5047410;28;20581;-61
2020/12/30 03:39:30;;;;;;;2.33;1.35;;;20.60;51.90;;;;;;5039966;28;20172;-61
2020/12/30 03:41:56;;;;;;;1.98;1.17;;;20.60;51.90;;;;;;5043992;28;20025;-61
2020/12/30 03:44:22;;;;;;;1.58;1.05;;;20.60;51.90;;;;;;5028670;28;20038;-61
2020/12/30 03:46:47;;;;;;;2.13;1.10;;;20.60;51.90;;;;;;5042346;28;20137;-61
2020/12/30 03:49:13;;;;;;;1.42;0.90;;;20.60;51.90;;;;;;5036690;28;20495;-60
2020/12/30 03:51:38;;;;;;;2.03;1.00;;;20.60;51.90;;;;;;5029441;28;20064;-60
2020/12/30 03:54:04;;;;;;;1.80;0.95;;;20.50;51.90;;;;;;5029126;28;20029;-61
2020/12/30 03:56:30;;;;;;;1.75;1.00;;;20.60;52.00;;;;;;5036030;28;20327;-60
2020/12/30 03:58:55;;;;;;;1.98;0.98;;;20.50;51.90;;;;;;5026245;28;20056;-60
2020/12/30 04:01:21;;;;;;;2.72;1.00;;;20.50;52.00;;;;;;5025456;28;20495;-61
2020/12/30 04:03:46;;;;;;;1.48;0.90;;;20.50;51.90;;;;;;5024377;28;20037;-60
2020/12/30 04:06:12;;;;;;;1.50;1.08;;;20.50;51.90;;;;;;5027019;28;20037;-60
2020/12/30 04:08:37;;;;;;;2.08;1.00;;;20.50;52.00;;;;;;5046537;28;20029;-61
2020/12/30 04:11:03;;;;;;;2.65;1.02;;;20.50;52.00;;;;;;5047148;28;20075;-62
2020/12/30 04:13:28;;;;;;;1.60;1.08;;;20.50;52.00;;;;;;5030085;28;20033;-62
2020/12/30 04:15:54;;;;;;;1.77;0.90;;;20.50;52.00;;;;;;5028080;28;20159;-60
2020/12/30 04:18:19;;;;;;;1.70;1.20;;;20.50;52.00;;;;;;5023556;28;20029;-61
2020/12/30 04:20:45;;;;;;;1.45;0.85;;;20.40;52.00;;;;;;5038491;28;20186;-60
2020/12/30 04:23:11;;;;;;;1.55;0.90;;;20.50;52.00;;;;;;5031293;28;20029;-60
2020/12/30 04:25:36;;;;;;;2.17;1.30;;;20.40;52.00;;;;;;5035828;28;20037;-60
2020/12/30 04:28:02;;;;;;;2.28;0.93;;;20.50;52.00;;;;;;5044258;28;20151;-60
2020/12/30 04:30:27;;;;;;;1.77;0.98;;;20.40;52.00;;;;;;5033702;28;20029;-61
2020/12/30 04:32:53;;;;;;;1.20;0.90;;;20.40;52.00;;;;;;5027384;28;20105;-60
2020/12/30 04:35:18;;;;;;;1.30;0.80;;;20.40;52.00;;;;;;5027869;28;20053;-60
2020/12/30 04:37:44;;;;;;;1.42;0.90;;;20.40;52.10;;;;;;5023545;28;20034;-60
2020/12/30 04:40:10;;;;;;;1.52;0.95;;;20.40;52.10;;;;;;5029598;28;20453;-60
2020/12/30 04:42:37;;;;;;;1.70;1.00;;;20.40;52.10;;;;;;5026446;28;20029;-60
2020/12/30 04:45:08;;;;;;;1.23;0.80;;;20.40;52.10;;;;;;5026661;28;20034;-61
2020/12/30 04:47:34;;;;;;;2.17;0.95;;;20.40;52.10;;;;;;5024901;28;20160;-61
2020/12/30 04:50:01;;;;;;;1.92;1.20;;;20.40;52.10;;;;;;5031293;28;20140;-61
2020/12/30 04:52:28;;;;;;;1.42;0.90;;;20.30;52.10;;;;;;5037947;28;20022;-61
2020/12/30 04:54:54;;;;;;;1.90;0.90;;;20.40;52.20;;;;;;5027118;28;20026;-60
2020/12/30 04:57:46;;;;;;;2.80;1.00;;;20.30;52.10;;;;;;5025511;28;20037;-60
2020/12/30 05:00:12;;;;;;;1.23;0.88;;;20.30;52.20;;;;;;5025196;28;20091;-60
2020/12/30 05:02:51;;;;;;;0.88;0.73;;;20.30;52.20;;;;;;5025256;28;20022;-60
2020/12/30 05:05:20;;;;;;;1.38;0.95;;;20.30;52.20;;;;;;5033408;28;20072;-61
2020/12/30 05:07:45;;;;;;;1.50;1.05;;;20.30;52.20;;;;;;5045318;28;20323;-61
2020/12/30 05:10:14;;;;;;;1.15;0.88;;;20.30;52.30;;;;;;5041079;28;20048;-60
2020/12/30 05:12:40;;;;;;;1.73;0.98;;;20.30;52.20;;;;;;5025902;28;20022;-60
2020/12/30 05:15:06;;;;;;;1.23;0.85;;;20.20;52.20;;;;;;5036446;28;20164;-61
2020/12/30 05:17:33;;;;;;;1.67;0.90;;;20.30;52.20;;;;;;5023455;28;20031;-61
2020/12/30 05:19:59;;;;;;;1.20;0.80;;;20.30;52.30;;;;;;5025286;28;20468;-61
2020/12/30 05:22:25;;;;;;;1.23;0.80;;;20.20;52.20;;;;;;5029949;28;20114;-61
2020/12/30 05:24:50;;;;;;;1.95;1.20;;;20.30;52.30;;;;;;5041403;28;20105;-61
2020/12/30 05:27:17;;;;;;;1.20;0.90;;;20.30;52.30;;;;;;5025372;28;20036;-61
2020/12/30 05:29:50;;;;;;;1.75;0.95;;;20.30;52.30;;;;;;5044795;28;20029;-61
2020/12/30 05:32:17;;;;;;;1.23;0.80;;;20.30;52.30;;;;;;5031146;28;20147;-60
2020/12/30 05:34:43;;;;;;;2.20;1.38;;;20.20;52.30;;;;;;5042542;28;20032;-61
2020/12/30 05:37:11;;;;;;;1.15;0.70;;;20.20;52.30;;;;;;5026309;28;20030;-61
2020/12/30 05:39:37;;;;;;;1.08;0.80;;;20.20;52.30;;;;;;5026392;28;20029;-61
2020/12/30 05:42:15;;;;;;;1.83;1.10;;;20.20;52.30;;;;;;5054998;28;20037;-60
2020/12/30 05:44:45;;;;;;;1.38;0.90;;;20.20;52.40;;;;;;5025853;28;20057;-60
2020/12/30 05:47:11;;;;;;;1.48;0.93;;;20.20;52.40;;;;;;5039197;28;20109;-61
2020/12/30 05:49:37;;;;;;;1.00;0.70;;;20.20;52.40;;;;;;5043469;28;20470;-60
2020/12/30 05:52:26;;;;;;;1.10;0.80;;;20.20;52.40;;;;;;5038954;28;20035;-60
2020/12/30 05:54:55;;;;;;;1.02;0.80;;;20.20;52.40;;;;;;5029782;28;20101;-60
2020/12/30 05:57:25;;;;;;;;;;;20.20;52.40;;;;;;5024596;28;20105;-61
2020/12/30 06:00:13;;;;;;;1.42;0.88;;;20.20;52.40;;;;;;5026816;28;19924;-61
2020/12/30 06:02:43;;;;;;;1.40;0.90;;;20.10;52.40;;;;;;5023639;28;20041;-60
2020/12/30 06:05:17;;;;;;;1.30;0.85;;;20.20;52.50;;;;;;5025057;28;20022;-61
2020/12/30 06:07:44;;;;;;;1.90;1.00;;;20.10;53.00;;;;;;5023928;28;20041;-61
2020/12/30 06:10:12;;;;;;;1.45;0.88;;;20.10;52.50;;;;;;5025609;28;20039;-60
2020/12/30 06:12:44;;;;;;;0.73;0.60;;;20.10;52.50;;;;;;5035296;28;20333;-60
2020/12/30 06:15:19;;;;;;;1.52;0.90;;;20.10;52.50;;;;;;5041009;28;20021;-60
2020/12/30 06:17:59;;;;;;;1.20;0.80;;;20.10;52.50;;;;;;5033902;28;20029;-60
2020/12/30 06:20:31;;;;;;;1.00;0.90;;;20.10;52.50;;;;;;5040202;28;20098;-61
2020/12/30 06:23:06;;;;;;;1.15;0.80;;;20.10;52.60;;;;;;5037345;28;20029;-61
2020/12/30 06:25:33;;;;;;;1.58;1.00;;;20.10;52.60;;;;;;5049589;28;20109;-61
2020/12/30 06:28:10;;;;;;;1.30;0.88;;;20.10;52.60;;;;;;5032957;28;20025;-61
2020/12/30 06:30:37;;;;;;;1.33;0.70;;;20.10;52.60;;;;;;5038740;28;20021;-61
2020/12/30 06:33:04;;;;;;;1.33;0.77;;;20.10;52.60;;;;;;5032224;28;20045;-60
2020/12/30 06:35:31;;;;;;;1.33;0.80;;;20.10;52.60;;;;;;5028773;28;20022;-60
2020/12/30 06:37:58;;;;;;;1.10;0.70;;;20.10;52.70;;;;;;5033688;28;20353;-61
2020/12/30 06:40:26;;;;;;;0.98;0.80;;;20.10;52.60;;;;;;5043039;28;20045;-60
2020/12/30 06:43:00;;;;;;;1.90;1.10;;;20.00;52.60;;;;;;5029070;28;20021;-60
2020/12/30 06:45:44;;;;;;;1.13;0.80;;;20.10;52.70;;;;;;5035144;28;20542;-61
2020/12/30 06:48:13;;;;;;;1.35;0.80;;;20.00;52.60;;;;;;5033993;28;20102;-61
2020/12/30 06:50:40;;;;;;;1.65;1.00;;;20.00;52.70;;;;;;5028209;28;20048;-60
2020/12/30 06:53:29;;;;;;;0.90;0.70;;;20.00;52.60;;;;;;5030001;28;20100;-61
2020/12/30 06:55:56;;;;;;;0.82;0.70;;;20.00;52.70;;;;;;5029627;28;20155;-60
2020/12/30 06:58:49;;;;;;;1.08;0.70;;;20.00;52.70;;;;;;5040852;28;20030;-61
2020/12/30 07:01:16;;;;;;;1.05;0.73;;;20.00;52.70;;;;;;5033679;28;20518;-61
2020/12/30 07:03:42;;;;;;;1.05;0.80;;;20.00;52.80;;;;;;5029348;28;20619;-60
2020/12/30 07:06:35;;;;;;;1.20;0.80;;;20.00;52.70;;;;;;5029783;28;20021;-61
2020/12/30 07:09:05;;;;;;;0.90;0.80;;;20.00;52.70;;;;;;5035617;28;20037;-61
2020/12/30 07:11:51;;;;;;;1.10;0.77;;;20.00;52.70;;;;;;5048183;28;20155;-61
2020/12/30 07:14:19;;;;;;;1.30;0.80;;;20.00;52.80;;;;;;5030933;28;20021;-61
2020/12/30 07:16:56;;;;;;;1.02;0.70;;;20.00;52.80;;;;;;5028302;28;20028;-61
2020/12/30 07:19:24;;;;;;;2.15;0.88;;;20.00;52.80;;;;;;5028274;28;20048;-61
2020/12/30 07:21:56;;;;;;;1.13;0.77;;;20.00;52.80;;;;;;5029045;28;20029;-61
2020/12/30 07:24:23;;;;;;;1.80;0.90;;;20.00;52.80;;;;;;5034800;28;20029;-62
2020/12/30 07:27:02;;;;;;;1.60;0.90;;;19.90;52.80;;;;;;5038744;28;20464;-63
2020/12/30 07:29:28;;;;;;;1.40;0.80;;;19.90;52.80;;;;;;5028608;28;20607;-63
2020/12/30 07:32:04;;;;;;;1.23;0.90;;;19.90;52.80;;;;;;5029651;28;20116;-62
2020/12/30 07:34:33;;;;;;;0.77;0.60;;;19.90;52.80;;;;;;5030088;28;20105;-63
2020/12/30 07:36:59;;;;;;;1.33;0.80;;;19.90;52.80;;;;;;5037570;28;20052;-63
2020/12/30 07:39:38;;;;;;;1.25;0.75;;;19.90;52.80;;;;;;5047163;28;20474;-63
2020/12/30 07:42:10;;;;;;;1.08;0.80;;;19.90;52.80;;;;;;5029940;28;20044;-63
2020/12/30 07:44:45;;;;;;;1.25;0.77;;;19.90;52.80;;;;;;5040171;28;20356;-63
2020/12/30 07:47:11;;;;;;;1.25;0.80;;;19.90;52.80;;;;;;5031278;28;20041;-63
2020/12/30 07:49:37;;;;;;;1.15;0.80;;;19.90;52.80;;;;;;5037271;28;20037;-63
2020/12/30 07:52:03;;;;;;;0.77;0.70;;;19.90;52.90;;;;;;5031800;28;20092;-63
2020/12/30 07:54:30;;;;;;;1.00;0.70;;;19.90;52.90;;;;;;5035966;28;20041;-64
2020/12/30 07:57:13;;;;;;;0.80;0.70;;;19.90;52.90;;;;;;5036324;28;20414;-63
2020/12/30 07:59:40;;;;;;;1.25;0.80;;;19.90;52.90;;;;;;5029522;28;20021;-63
2020/12/30 08:02:11;;;;;;;1.05;0.70;;;19.90;52.90;;;;;;5027052;28;20030;-63
2020/12/30 08:04:38;;;;;;;1.17;0.80;;;19.90;52.90;;;;;;5031696;28;20333;-63
2020/12/30 08:07:14;;;;;;;0.98;0.68;;;19.90;52.90;;;;;;5044955;28;20040;-63
2020/12/30 08:09:45;;;;;;;1.25;0.80;;;19.90;52.90;;;;;;5047418;28;20044;-63
2020/12/30 08:12:12;;;;;;;0.93;0.65;;;19.90;52.90;;;;;;5040514;28;20460;-63
2020/12/30 08:14:40;;;;;;;1.13;0.75;;;19.90;53.00;;;;;;5030010;28;20050;-63
2020/12/30 08:17:13;;;;;;;1.48;0.80;;;19.90;53.00;;;;;;5029155;28;20045;-63
2020/12/30 08:19:47;;;;;;;1.23;0.88;;;19.80;52.90;;;;;;5035165;28;20037;-63
2020/12/30 08:22:12;;;;;;;0.93;0.80;;;19.80;52.90;;;;;;5028262;28;20037;-63
2020/12/30 08:24:50;;;;;;;1.45;0.80;;;19.80;52.90;;;;;;5037452;28;20025;-63
2020/12/30 08:27:18;;;;;;;0.75;0.73;;;19.80;52.90;;;;;;5038965;28;20099;-63
2020/12/30 08:29:44;;;;;;;1.33;0.70;;;19.80;52.90;;;;;;5028826;28;20032;-63
2020/12/30 08:32:32;;;;;;;1.50;0.73;;;19.80;52.90;;;;;;5034627;28;20051;-63
2020/12/30 08:35:10;;;;;;;1.23;0.70;;;19.80;53.00;;;;;;5037675;28;20065;-63
2020/12/30 08:37:39;;;;;;;1.83;0.68;;;19.80;53.00;;;;;;5047295;28;20030;-63
2020/12/30 08:40:05;;;;;;;2.15;0.80;;;19.80;53.00;;;;;;5052956;28;20073;-63
2020/12/30 08:42:52;;;;;;;1.38;0.80;;;19.80;53.00;;;;;;5028274;28;20049;-63
2020/12/30 08:45:35;;;;;;;1.08;0.75;;;19.80;53.00;;;;;;5030354;28;20357;-63
2020/12/30 08:48:30;;;;;;;1.58;0.80;;;19.80;53.00;;;;;;5044354;28;20029;-64
2020/12/30 08:50:56;;;;;;;0.98;0.70;;;19.80;53.00;;;;;;5038304;28;20045;-63
2020/12/30 08:53:38;;;;;;;1.77;0.70;;;19.80;53.00;;;;;;5038315;28;20083;-63
2020/12/30 08:56:07;;;;;;;1.00;0.75;;;19.80;53.00;;;;;;5032427;28;20017;-64
2020/12/30 08:58:34;;;;;;;1.00;0.63;;;19.80;53.00;;;;;;5047061;28;20538;-63
2020/12/30 09:01:00;;;;;;;1.50;0.80;;;19.80;53.00;;;;;;5040301;28;20030;-63
2020/12/30 09:03:27;;;;;;;1.60;0.80;;;19.80;53.00;;;;;;5026155;28;20040;-64
2020/12/30 09:05:58;;;;;;;1.08;0.73;;;19.80;53.00;;;;;;5027639;28;20193;-64
2020/12/30 09:08:30;;;;;;;1.77;0.90;;;19.80;53.00;;;;;;5036504;28;20082;-64
2020/12/30 09:10:57;;;;;;;1.30;0.80;;;19.80;53.00;;;;;;5034737;28;20104;-64
2020/12/30 09:13:27;;;;;;;1.30;0.80;;;19.80;53.00;;;;;;5029737;28;20030;-64
2020/12/30 09:15:57;;;;;;;1.15;0.80;;;19.80;53.00;;;;;;5029111;28;20051;-65
2020/12/30 09:18:23;;;;;;;1.25;0.75;;;19.80;53.00;;;;;;5030645;28;20033;-65
2020/12/30 09:20:50;;;;;;;1.38;0.80;;;19.80;53.00;;;;;;5023879;28;20048;-65
2020/12/30 09:23:20;;;;;;;1.75;0.90;;;19.80;53.00;;;;;;5032232;28;20045;-65
2020/12/30 09:25:45;;;;;;;;;;;19.80;53.00;;;;;;5035571;28;20452;-65
2020/12/30 09:28:22;;;;;;;1.67;0.80;;;19.80;53.00;;;;;;5039654;28;19931;-65
2020/12/30 09:30:49;;;;;;;1.00;0.70;;;19.80;53.00;;;;;;5035734;28;20057;-65
2020/12/30 09:33:17;;;;;;;0.98;0.75;;;19.80;52.90;;;;;;5028673;28;20424;-65
2020/12/30 09:35:43;;;;;;;1.00;0.70;;;19.70;52.90;;;;;;5030814;28;20031;-65
2020/12/30 09:38:09;;;;;;;1.50;0.80;;;19.70;52.90;;;;;;5026194;28;20057;-65
2020/12/30 09:40:42;;;;;;;2.60;0.80;;;19.70;52.90;;;;;;5042235;28;20137;-64
2020/12/30 09:43:12;;;;;;;1.27;0.75;;;19.80;53.00;;;;;;5028673;28;20029;-64
2020/12/30 09:45:39;;;;;;;1.10;0.73;;;19.70;52.90;;;;;;5026714;28;20043;-64
2020/12/30 09:48:23;;;;;;;1.17;0.80;;;19.70;52.90;;;;;;5022892;28;20344;-64
2020/12/30 09:50:52;;;;;;;1.65;1.05;;;19.70;52.90;;;;;;5025704;28;20057;-64
2020/12/30 09:53:18;;;;;;;2.47;1.20;;;19.70;52.90;;;;;;5041899;28;20082;-64
2020/12/30 09:55:48;;;;;;;1.58;0.80;;;19.80;53.00;;;;;;5031022;28;20037;-65
2020/12/30 09:58:14;;;;;;;1.77;0.80;;;19.70;53.00;;;;;;5032513;28;20032;-66
2020/12/30 10:00:40;;;;;;;1.23;0.90;;;19.70;53.00;;;;;;5031656;28;20052;-63
2020/12/30 10:03:07;;;;;;;2.35;1.25;;;19.70;53.10;;;;;;5021899;28;20018;-63
2020/12/30 10:05:32;;;;;;;1.20;0.90;;;19.70;53.10;;;;;;5033468;28;20028;-64
2020/12/30 10:07:58;;;;;;;1.60;0.90;;;19.80;53.10;;;;;;5040106;28;20033;-63
2020/12/30 10:10:24;;;;;;;3.88;0.90;;;19.80;53.20;;;;;;5043874;28;20112;-62
2020/12/30 10:12:50;;;;;;;1.80;0.90;;;19.80;53.20;;;;;;5044190;28;20108;-63
2020/12/30 10:15:17;;;;;;;1.85;1.00;;;19.80;53.30;;;;;;5027315;28;20372;-64
2020/12/30 10:17:43;;;;;;;1.40;0.90;;;19.80;53.30;;;;;;5042988;28;20049;-63
2020/12/30 10:20:10;;;;;;;1.88;1.00;;;19.80;53.30;;;;;;5034411;28;20038;-63
2020/12/30 10:22:40;;;;;;;1.52;0.90;;;19.80;53.30;;;;;;5032233;28;20452;-64
2020/12/30 10:25:09;;;;;;;2.30;1.10;;;19.80;53.30;;;;;;5031624;28;20033;-64
2020/12/30 10:27:35;;;;;;;2.00;1.23;;;19.80;53.30;;;;;;5027093;28;20053;-65
2020/12/30 10:30:01;;;;;;;2.15;1.40;;;19.80;53.70;;;;;;5028896;28;20121;-64
2020/12/30 10:32:26;;;;;;;2.72;1.35;;;19.90;53.80;;;;;;5028859;28;20477;-65
2020/12/30 10:34:52;;;;;;;1.98;1.30;;;20.10;53.60;;;;;;5031641;28;20025;-64
2020/12/30 10:37:18;;;;;;;2.90;1.50;;;20.20;53.30;;;;;;5036409;28;20041;-65
2020/12/30 10:39:45;;;;;;;2.50;1.42;;;20.40;53.00;;;;;;5037350;28;20029;-64
2020/12/30 10:42:11;;;;;;;2.17;1.25;;;20.50;52.70;;;;;;5036275;28;20030;-64
2020/12/30 10:44:37;;;;;;;3.03;1.60;;;20.60;52.60;;;;;;5032672;28;20371;-64
2020/12/30 10:47:03;;;;;;;1.98;1.30;;;20.80;52.30;;;;;;5028619;28;20131;-64
2020/12/30 10:49:28;;;;;;;1.63;1.10;;;20.90;52.00;;;;;;5027981;28;20040;-64
2020/12/30 10:51:54;;;;;;;2.53;1.33;;;21.00;51.80;;;;;;5024700;28;20779;-63
2020/12/30 10:54:22;;;;;;;3.80;1.40;;;21.10;51.50;;;;;;5025139;28;20034;-63
2020/12/30 10:56:49;;;;;;;2.30;1.50;;;21.30;51.40;;;;;;5025573;28;20048;-64
2020/12/30 10:59:15;;;;;;;1.83;1.25;;;21.40;51.20;;;;;;5026647;28;20045;-65
2020/12/30 11:01:41;;;;;;;2.97;1.15;;;21.50;50.90;;;;;;5022976;28;20030;-64
2020/12/30 11:04:06;;;;;;;2.08;1.27;;;21.60;50.60;;;;;;5030470;28;20037;-64
2020/12/30 11:06:32;;;;;;;1.92;1.20;;;21.50;50.60;;;;;;5031887;28;20033;-64
2020/12/30 11:08:58;;;;;;;2.33;1.27;;;21.40;50.70;;;;;;5027296;28;20099;-64
2020/12/30 11:11:23;;;;;;;2.05;1.00;;;21.50;51.10;;;;;;5030024;28;20040;-63
2020/12/30 11:13:49;;;;;;;1.60;1.10;;;21.50;51.10;;;;;;5032174;28;20078;-64
2020/12/30 11:16:15;;;;;;;2.03;1.02;;;21.60;51.00;;;;;;5031932;28;20037;-63
2020/12/30 11:18:40;;;;;;;1.95;1.00;;;21.70;50.90;;;;;;5024640;28;20804;-63
2020/12/30 11:21:06;;;;;;;2.15;1.15;;;21.70;50.70;;;;;;5043526;28;20137;-63
2020/12/30 11:23:31;;;;;;;1.75;1.02;;;21.80;50.60;;;;;;5031336;28;20475;-63
2020/12/30 11:25:57;;;;;;;1.52;1.10;;;21.90;50.50;;;;;;5034011;28;20037;-63
2020/12/30 11:28:23;;;;;;;2.50;1.10;;;21.90;50.30;;;;;;5030301;28;20041;-63
2020/12/30 11:30:48;;;;;;;2.00;1.10;;;22.10;50.00;;;;;;5041268;28;20029;-64
2020/12/30 11:33:14;;;;;;;1.58;1.00;;;22.10;50.20;;;;;;5028424;28;20029;-64
2020/12/30 11:35:39;;;;;;;1.80;1.00;;;22.20;50.10;;;;;;5033802;28;20031;-65
2020/12/30 11:38:06;;;;;;;1.60;1.08;;;22.30;50.10;;;;;;5030017;28;20104;-64
2020/12/30 11:40:32;;;;;;;2.05;1.20;;;22.30;49.80;;;;;;5032564;28;20068;-64
2020/12/30 11:42:57;;;;;;;1.63;0.95;;;22.40;49.70;;;;;;5032024;28;20417;-65
2020/12/30 11:45:23;;;;;;;1.63;1.08;;;22.50;49.70;;;;;;5028241;28;20114;-63
2020/12/30 11:47:49;;;;;;;1.33;1.00;;;22.60;49.60;;;;;;5025867;28;20037;-66
2020/12/30 11:50:15;;;;;;;2.33;1.20;;;22.60;49.50;;;;;;5039149;28;20111;-64
2020/12/30 11:52:46;;;;;;;2.17;1.08;;;22.70;49.40;;;;;;5034210;28;20025;-63
2020/12/30 11:55:11;;;;;;;2.17;1.10;;;22.60;49.90;;;;;;5028659;28;20059;-63
2020/12/30 11:57:37;;;;;;;2.15;1.10;;;22.60;49.60;;;;;;5027982;28;20076;-63
2020/12/30 12:00:07;;;;;;;2.00;1.00;;;22.60;49.70;;;;;;5026475;28;20044;-63
2020/12/30 12:02:34;;;;;;;1.75;1.10;;;22.50;49.70;;;;;;5033238;28;20083;-63
2020/12/30 12:05:00;;;;;;;1.92;1.10;;;22.50;49.70;;;;;;5040545;28;20033;-64
2020/12/30 12:07:27;;;;;;;1.67;1.02;;;22.50;49.70;;;;;;5036755;28;20186;-63
2020/12/30 12:09:53;;;;;;;2.35;1.10;;;22.50;49.70;;;;;;5042646;28;20029;-63
2020/12/30 12:12:18;;;;;;;2.53;1.35;;;22.40;49.70;;;;;;5042438;28;20688;-64
2020/12/30 12:14:44;;;;;;;3.03;1.20;;;22.50;49.70;;;;;;5032588;28;20029;-64
2020/12/30 12:17:09;;;;;;;1.95;1.30;;;22.50;49.70;;;;;;5031124;28;20028;-62
2020/12/30 12:19:35;;;;;;;2.28;1.20;;;22.50;49.70;;;;;;5028618;28;20044;-62
2020/12/30 12:22:01;;;;;;;2.30;1.05;;;22.50;49.70;;;;;;5028424;28;20087;-63
2020/12/30 12:24:26;;;;;;;2.40;1.38;;;22.50;49.70;;;;;;5040045;28;20128;-64
2020/12/30 12:26:52;;;;;;;1.90;1.30;;;22.50;49.70;;;;;;5028861;28;20033;-64
2020/12/30 12:29:36;;;;;;;2.42;1.20;;;22.50;49.70;;;;;;5029483;28;20029;-63
2020/12/30 12:32:13;;;;;;;2.90;1.40;;;22.50;49.70;;;;;;5031316;28;20116;-64
2020/12/30 12:34:41;;;;;;;2.22;1.10;;;22.50;49.70;;;;;;5033444;28;20542;-63
2020/12/30 12:37:08;;;;;;;3.00;1.30;;;22.50;49.70;;;;;;5027745;28;20034;-64
2020/12/30 12:39:36;;;;;;;2.47;1.30;;;22.50;49.70;;;;;;5032013;28;20219;-64
2020/12/30 12:42:02;;;;;;;4.10;1.33;;;22.50;49.60;;;;;;5026603;28;20025;-64
2020/12/30 12:44:29;;;;;;;3.65;1.30;;;22.50;49.60;;;;;;5026104;28;20131;-65
2020/12/30 12:46:55;;;;;;;1.85;1.20;;;22.50;49.60;;;;;;5033547;28;20052;-63
2020/12/30 12:49:20;;;;;;;3.17;1.33;;;22.50;49.60;;;;;;5027584;28;20673;-64
2020/12/30 12:51:57;;;;;;;2.20;1.25;;;22.50;49.60;;;;;;5032218;28;20024;-64